sensor_id;sensor_type;location;lat;lon;timestamp;temperature;humidity
52543;DHT22;38449;52.696;6.186;2024-01-11T00:01:49;-4.70;99.90
52543;DHT22;38449;52.696;6.186;2024-01-11T00:04:15;-4.80;99.90
52543;DHT22;38449;52.696;6.186;2024-01-11T00:06:42;-4.80;99.90
52543;DHT22;38449;52.696;6.186;2024-01-11T00:09:09;-4.80;99.90
52543;DHT22;38449;52.696;6.186;2024-01-11T00:11:36;-4.80;99.90
52543;DHT22;38449;52.696;6.186;2024-01-11T00:14:02;-4.70;99.90
52543;DHT22;38449;52.696;6.186;2024-01-11T00:16:29;-4.80;99.90
52543;DHT22;38449;52.696;6.186;2024-01-11T00:18:55;-4.80;99.90
52543;DHT22;38449;52.696;6.186;2024-01-11T00:21:22;-4.80;99.90
52543;DHT22;38449;52.696;6.186;2024-01-11T00:23:48;-4.80;99.90
52543;DHT22;38449;52.696;6.186;2024-01-11T00:26:15;-4.80;99.90
52543;DHT22;38449;52.696;6.186;2024-01-11T00:28:41;-4.90;99.90
52543;DHT22;38449;52.696;6.186;2024-01-11T00:31:07;-4.80;99.90
52543;DHT22;38449;52.696;6.186;2024-01-11T00:33:34;-4.90;99.90
52543;DHT22;38449;52.696;6.186;2024-01-11T00:36:00;-4.90;99.90
52543;DHT22;38449;52.696;6.186;2024-01-11T00:38:26;-4.90;99.90
52543;DHT22;38449;52.696;6.186;2024-01-11T00:40:52;-4.90;99.90
52543;DHT22;38449;52.696;6.186;2024-01-11T00:43:19;-4.80;99.90
52543;DHT22;38449;52.696;6.186;2024-01-11T00:45:45;-4.90;99.90
52543;DHT22;38449;52.696;6.186;2024-01-11T00:48:12;-4.90;99.90
52543;DHT22;38449;52.696;6.186;2024-01-11T00:50:38;-5.00;99.90
52543;DHT22;38449;52.696;6.186;2024-01-11T00:53:05;-5.00;99.90
52543;DHT22;38449;52.696;6.186;2024-01-11T00:55:31;-4.90;99.90
52543;DHT22;38449;52.696;6.186;2024-01-11T00:57:57;-5.00;99.90
52543;DHT22;38449;52.696;6.186;2024-01-11T01:00:23;-4.60;99.90
52543;DHT22;38449;52.696;6.186;2024-01-11T01:02:50;-5.00;99.90
52543;DHT22;38449;52.696;6.186;2024-01-11T01:05:16;-5.00;99.90
52543;DHT22;38449;52.696;6.186;2024-01-11T01:07:43;-5.00;99.90
52543;DHT22;38449;52.696;6.186;2024-01-11T01:10:09;-5.00;99.90
52543;DHT22;38449;52.696;6.186;2024-01-11T01:12:35;-5.00;99.90
52543;DHT22;38449;52.696;6.186;2024-01-11T01:15:01;-5.10;99.90
52543;DHT22;38449;52.696;6.186;2024-01-11T01:17:28;-5.10;99.90
52543;DHT22;38449;52.696;6.186;2024-01-11T01:19:54;-5.00;99.90
52543;DHT22;38449;52.696;6.186;2024-01-11T01:22:20;-5.10;99.90
52543;DHT22;38449;52.696;6.186;2024-01-11T01:24:46;-5.10;99.90
52543;DHT22;38449;52.696;6.186;2024-01-11T01:27:13;-5.10;99.90
52543;DHT22;38449;52.696;6.186;2024-01-11T01:29:39;-5.10;99.90
52543;DHT22;38449;52.696;6.186;2024-01-11T01:32:05;-5.10;99.90
52543;DHT22;38449;52.696;6.186;2024-01-11T01:34:31;-5.20;99.90
52543;DHT22;38449;52.696;6.186;2024-01-11T01:36:59;-5.10;99.90
52543;DHT22;38449;52.696;6.186;2024-01-11T01:39:25;-5.20;99.90
52543;DHT22;38449;52.696;6.186;2024-01-11T01:41:53;-5.20;99.90
52543;DHT22;38449;52.696;6.186;2024-01-11T01:44:19;-5.10;99.90
52543;DHT22;38449;52.696;6.186;2024-01-11T01:46:47;-5.20;99.90
52543;DHT22;38449;52.696;6.186;2024-01-11T01:49:14;-5.20;99.90
52543;DHT22;38449;52.696;6.186;2024-01-11T01:51:45;-5.20;99.90
52543;DHT22;38449;52.696;6.186;2024-01-11T01:54:11;-5.20;99.90
52543;DHT22;38449;52.696;6.186;2024-01-11T01:56:37;-5.20;99.90
52543;DHT22;38449;52.696;6.186;2024-01-11T01:59:04;-5.20;99.90
52543;DHT22;38449;52.696;6.186;2024-01-11T02:01:31;-5.30;99.90
52543;DHT22;38449;52.696;6.186;2024-01-11T02:03:58;-5.30;99.90
52543;DHT22;38449;52.696;6.186;2024-01-11T02:06:25;-5.30;99.90
52543;DHT22;38449;52.696;6.186;2024-01-11T02:08:55;-5.30;99.90
52543;DHT22;38449;52.696;6.186;2024-01-11T02:11:23;-5.30;99.90
52543;DHT22;38449;52.696;6.186;2024-01-11T02:13:50;-5.30;99.90
52543;DHT22;38449;52.696;6.186;2024-01-11T02:16:16;-5.30;99.90
52543;DHT22;38449;52.696;6.186;2024-01-11T02:18:43;-5.20;99.90
52543;DHT22;38449;52.696;6.186;2024-01-11T02:21:11;-5.30;99.90
52543;DHT22;38449;52.696;6.186;2024-01-11T02:23:44;-5.30;99.90
52543;DHT22;38449;52.696;6.186;2024-01-11T02:26:14;-5.30;99.90
52543;DHT22;38449;52.696;6.186;2024-01-11T02:28:44;-5.30;99.90
52543;DHT22;38449;52.696;6.186;2024-01-11T02:31:12;-5.10;99.90
52543;DHT22;38449;52.696;6.186;2024-01-11T02:33:39;-5.40;99.90
52543;DHT22;38449;52.696;6.186;2024-01-11T02:36:07;-5.30;99.90
52543;DHT22;38449;52.696;6.186;2024-01-11T02:38:34;-5.30;99.90
52543;DHT22;38449;52.696;6.186;2024-01-11T02:41:01;-5.40;99.90
52543;DHT22;38449;52.696;6.186;2024-01-11T02:43:27;-5.30;99.90
52543;DHT22;38449;52.696;6.186;2024-01-11T02:45:56;-5.30;99.90
52543;DHT22;38449;52.696;6.186;2024-01-11T02:48:28;-5.30;99.90
52543;DHT22;38449;52.696;6.186;2024-01-11T02:50:58;-5.30;99.90
52543;DHT22;38449;52.696;6.186;2024-01-11T02:53:24;-5.40;99.90
52543;DHT22;38449;52.696;6.186;2024-01-11T02:55:51;-5.30;99.90
52543;DHT22;38449;52.696;6.186;2024-01-11T02:58:17;-5.30;99.90
52543;DHT22;38449;52.696;6.186;2024-01-11T03:00:43;-5.30;99.90
52543;DHT22;38449;52.696;6.186;2024-01-11T03:03:10;-5.30;99.90
52543;DHT22;38449;52.696;6.186;2024-01-11T03:05:36;-5.30;99.90
52543;DHT22;38449;52.696;6.186;2024-01-11T03:08:02;-5.30;99.90
52543;DHT22;38449;52.696;6.186;2024-01-11T03:10:28;-5.30;99.90
52543;DHT22;38449;52.696;6.186;2024-01-11T03:12:55;-5.30;99.90
52543;DHT22;38449;52.696;6.186;2024-01-11T03:15:24;-5.30;99.90
52543;DHT22;38449;52.696;6.186;2024-01-11T03:17:50;-5.40;99.90
52543;DHT22;38449;52.696;6.186;2024-01-11T03:20:16;-5.40;99.90
52543;DHT22;38449;52.696;6.186;2024-01-11T03:22:46;-5.30;99.90
52543;DHT22;38449;52.696;6.186;2024-01-11T03:25:13;-5.20;99.90
52543;DHT22;38449;52.696;6.186;2024-01-11T03:27:39;-5.30;99.90
52543;DHT22;38449;52.696;6.186;2024-01-11T03:30:06;-5.20;99.90
52543;DHT22;38449;52.696;6.186;2024-01-11T03:32:32;-5.40;99.90
52543;DHT22;38449;52.696;6.186;2024-01-11T03:34:58;-5.30;99.90
52543;DHT22;38449;52.696;6.186;2024-01-11T03:37:25;-5.30;99.90
52543;DHT22;38449;52.696;6.186;2024-01-11T03:39:51;-5.30;99.90
52543;DHT22;38449;52.696;6.186;2024-01-11T03:42:17;-5.40;99.90
52543;DHT22;38449;52.696;6.186;2024-01-11T03:44:43;-5.30;99.90
52543;DHT22;38449;52.696;6.186;2024-01-11T03:47:10;-5.30;99.90
52543;DHT22;38449;52.696;6.186;2024-01-11T03:49:36;-5.30;99.90
52543;DHT22;38449;52.696;6.186;2024-01-11T03:52:04;-5.30;99.90
52543;DHT22;38449;52.696;6.186;2024-01-11T03:54:30;-5.30;99.90
52543;DHT22;38449;52.696;6.186;2024-01-11T03:56:57;-5.30;99.90
52543;DHT22;38449;52.696;6.186;2024-01-11T03:59:23;-5.40;99.90
52543;DHT22;38449;52.696;6.186;2024-01-11T04:01:49;-5.30;99.90
52543;DHT22;38449;52.696;6.186;2024-01-11T04:04:17;-5.30;99.90
52543;DHT22;38449;52.696;6.186;2024-01-11T04:06:43;-5.40;99.90
52543;DHT22;38449;52.696;6.186;2024-01-11T04:09:09;-5.40;99.90
52543;DHT22;38449;52.696;6.186;2024-01-11T04:11:36;-5.30;99.90
52543;DHT22;38449;52.696;6.186;2024-01-11T04:14:02;-5.30;99.90
52543;DHT22;38449;52.696;6.186;2024-01-11T04:16:28;-5.30;99.90
52543;DHT22;38449;52.696;6.186;2024-01-11T04:18:55;-5.30;99.90
52543;DHT22;38449;52.696;6.186;2024-01-11T04:21:26;-5.30;99.90
52543;DHT22;38449;52.696;6.186;2024-01-11T04:23:56;-5.30;99.90
52543;DHT22;38449;52.696;6.186;2024-01-11T04:26:23;-5.30;99.90
52543;DHT22;38449;52.696;6.186;2024-01-11T04:28:49;-5.30;99.90
52543;DHT22;38449;52.696;6.186;2024-01-11T04:31:16;-5.30;99.90
52543;DHT22;38449;52.696;6.186;2024-01-11T04:33:45;-5.30;99.90
52543;DHT22;38449;52.696;6.186;2024-01-11T04:36:12;-5.40;99.90
52543;DHT22;38449;52.696;6.186;2024-01-11T04:38:39;-5.30;99.90
52543;DHT22;38449;52.696;6.186;2024-01-11T04:41:11;-5.30;99.90
52543;DHT22;38449;52.696;6.186;2024-01-11T04:43:43;-5.30;99.90
52543;DHT22;38449;52.696;6.186;2024-01-11T04:48:39;-5.30;99.90
52543;DHT22;38449;52.696;6.186;2024-01-11T04:51:06;-5.30;99.90
52543;DHT22;38449;52.696;6.186;2024-01-11T04:53:33;-5.30;99.90
52543;DHT22;38449;52.696;6.186;2024-01-11T04:55:59;-5.40;99.90
52543;DHT22;38449;52.696;6.186;2024-01-11T04:58:25;-5.40;99.90
52543;DHT22;38449;52.696;6.186;2024-01-11T05:00:51;-5.40;99.90
52543;DHT22;38449;52.696;6.186;2024-01-11T05:03:17;-5.40;99.90
52543;DHT22;38449;52.696;6.186;2024-01-11T05:05:44;-5.50;99.90
52543;DHT22;38449;52.696;6.186;2024-01-11T05:08:10;-5.50;99.90
52543;DHT22;38449;52.696;6.186;2024-01-11T05:10:36;-5.40;99.90
52543;DHT22;38449;52.696;6.186;2024-01-11T05:13:03;-5.50;99.90
52543;DHT22;38449;52.696;6.186;2024-01-11T05:15:29;-5.40;99.90
52543;DHT22;38449;52.696;6.186;2024-01-11T05:17:55;-5.50;99.90
52543;DHT22;38449;52.696;6.186;2024-01-11T05:20:22;-5.50;99.90
52543;DHT22;38449;52.696;6.186;2024-01-11T05:22:49;-5.50;99.90
52543;DHT22;38449;52.696;6.186;2024-01-11T05:25:16;-5.40;99.90
52543;DHT22;38449;52.696;6.186;2024-01-11T05:27:43;-5.50;99.90
52543;DHT22;38449;52.696;6.186;2024-01-11T05:30:10;-5.50;99.90
52543;DHT22;38449;52.696;6.186;2024-01-11T05:32:36;-5.50;99.90
52543;DHT22;38449;52.696;6.186;2024-01-11T05:35:02;-5.40;99.90
52543;DHT22;38449;52.696;6.186;2024-01-11T05:37:28;-5.40;99.90
52543;DHT22;38449;52.696;6.186;2024-01-11T05:39:55;-5.40;99.90
52543;DHT22;38449;52.696;6.186;2024-01-11T05:42:23;-5.30;99.90
52543;DHT22;38449;52.696;6.186;2024-01-11T05:44:51;-5.40;99.90
52543;DHT22;38449;52.696;6.186;2024-01-11T05:47:19;-5.30;99.90
52543;DHT22;38449;52.696;6.186;2024-01-11T05:49:45;-5.30;99.90
52543;DHT22;38449;52.696;6.186;2024-01-11T05:52:14;-5.30;99.90
52543;DHT22;38449;52.696;6.186;2024-01-11T05:54:40;-5.30;99.90
52543;DHT22;38449;52.696;6.186;2024-01-11T05:57:07;-5.30;99.90
52543;DHT22;38449;52.696;6.186;2024-01-11T05:59:34;-5.30;99.90
52543;DHT22;38449;52.696;6.186;2024-01-11T06:02:00;-5.30;99.90
52543;DHT22;38449;52.696;6.186;2024-01-11T06:04:28;-5.30;99.90
52543;DHT22;38449;52.696;6.186;2024-01-11T06:06:54;-5.30;99.90
52543;DHT22;38449;52.696;6.186;2024-01-11T06:09:20;-5.30;99.90
52543;DHT22;38449;52.696;6.186;2024-01-11T06:11:46;-5.30;99.90
52543;DHT22;38449;52.696;6.186;2024-01-11T06:14:13;-5.30;99.90
52543;DHT22;38449;52.696;6.186;2024-01-11T06:16:40;-5.20;99.90
52543;DHT22;38449;52.696;6.186;2024-01-11T06:19:07;-5.30;99.90
52543;DHT22;38449;52.696;6.186;2024-01-11T06:21:34;-5.30;99.90
52543;DHT22;38449;52.696;6.186;2024-01-11T06:24:01;-5.20;99.90
52543;DHT22;38449;52.696;6.186;2024-01-11T06:26:29;-5.20;99.90
52543;DHT22;38449;52.696;6.186;2024-01-11T06:28:56;-5.20;99.90
52543;DHT22;38449;52.696;6.186;2024-01-11T06:31:22;-5.10;99.90
52543;DHT22;38449;52.696;6.186;2024-01-11T06:33:48;-5.10;99.90
52543;DHT22;38449;52.696;6.186;2024-01-11T06:36:15;-5.10;99.90
52543;DHT22;38449;52.696;6.186;2024-01-11T06:38:41;-5.10;99.90
52543;DHT22;38449;52.696;6.186;2024-01-11T06:41:07;-5.00;99.90
52543;DHT22;38449;52.696;6.186;2024-01-11T06:43:34;-5.00;99.90
52543;DHT22;38449;52.696;6.186;2024-01-11T06:46:04;-4.90;99.90
52543;DHT22;38449;52.696;6.186;2024-01-11T06:48:31;-4.80;99.90
52543;DHT22;38449;52.696;6.186;2024-01-11T06:50:58;-4.60;99.90
52543;DHT22;38449;52.696;6.186;2024-01-11T06:53:24;-4.70;99.90
52543;DHT22;38449;52.696;6.186;2024-01-11T06:55:51;-4.60;99.90
52543;DHT22;38449;52.696;6.186;2024-01-11T06:58:20;-4.50;99.90
52543;DHT22;38449;52.696;6.186;2024-01-11T07:00:49;-4.50;99.90
52543;DHT22;38449;52.696;6.186;2024-01-11T07:03:16;-4.40;99.90
52543;DHT22;38449;52.696;6.186;2024-01-11T07:05:43;-4.30;99.90
52543;DHT22;38449;52.696;6.186;2024-01-11T07:08:09;-4.30;99.90
52543;DHT22;38449;52.696;6.186;2024-01-11T07:10:35;-4.20;99.90
52543;DHT22;38449;52.696;6.186;2024-01-11T07:13:01;-4.30;99.90
52543;DHT22;38449;52.696;6.186;2024-01-11T07:15:28;-4.10;99.90
52543;DHT22;38449;52.696;6.186;2024-01-11T07:17:54;-4.10;99.90
52543;DHT22;38449;52.696;6.186;2024-01-11T07:20:20;-4.10;99.90
52543;DHT22;38449;52.696;6.186;2024-01-11T07:22:47;-4.00;99.90
52543;DHT22;38449;52.696;6.186;2024-01-11T07:25:13;-4.00;99.90
52543;DHT22;38449;52.696;6.186;2024-01-11T07:27:40;-3.90;99.90
52543;DHT22;38449;52.696;6.186;2024-01-11T07:30:07;-3.90;99.90
52543;DHT22;38449;52.696;6.186;2024-01-11T07:32:34;-3.90;99.90
52543;DHT22;38449;52.696;6.186;2024-01-11T07:35:00;-3.90;99.90
52543;DHT22;38449;52.696;6.186;2024-01-11T07:37:27;-3.80;99.90
52543;DHT22;38449;52.696;6.186;2024-01-11T07:39:54;-3.80;99.90
52543;DHT22;38449;52.696;6.186;2024-01-11T07:42:20;-3.80;99.90
52543;DHT22;38449;52.696;6.186;2024-01-11T07:44:46;-3.80;99.90
52543;DHT22;38449;52.696;6.186;2024-01-11T07:47:12;-3.80;99.90
52543;DHT22;38449;52.696;6.186;2024-01-11T07:49:40;-3.70;99.90
52543;DHT22;38449;52.696;6.186;2024-01-11T07:52:09;-3.70;99.90
52543;DHT22;38449;52.696;6.186;2024-01-11T07:54:35;-3.60;99.90
52543;DHT22;38449;52.696;6.186;2024-01-11T07:57:02;-3.70;99.90
52543;DHT22;38449;52.696;6.186;2024-01-11T07:59:33;-3.60;99.90
52543;DHT22;38449;52.696;6.186;2024-01-11T08:01:59;-3.50;99.90
52543;DHT22;38449;52.696;6.186;2024-01-11T08:04:25;-3.50;99.90
52543;DHT22;38449;52.696;6.186;2024-01-11T08:06:51;-3.50;99.90
52543;DHT22;38449;52.696;6.186;2024-01-11T08:09:18;-3.40;99.90
52543;DHT22;38449;52.696;6.186;2024-01-11T08:11:45;-3.30;99.90
52543;DHT22;38449;52.696;6.186;2024-01-11T08:14:12;-3.20;99.90
52543;DHT22;38449;52.696;6.186;2024-01-11T08:16:40;-3.30;99.90
52543;DHT22;38449;52.696;6.186;2024-01-11T08:19:06;-3.20;99.90
52543;DHT22;38449;52.696;6.186;2024-01-11T08:21:32;-3.20;99.90
52543;DHT22;38449;52.696;6.186;2024-01-11T08:23:58;-3.20;99.90
52543;DHT22;38449;52.696;6.186;2024-01-11T08:26:25;-3.10;99.90
52543;DHT22;38449;52.696;6.186;2024-01-11T08:28:51;-3.10;99.90
52543;DHT22;38449;52.696;6.186;2024-01-11T08:31:18;-3.00;99.90
52543;DHT22;38449;52.696;6.186;2024-01-11T08:33:44;-2.90;99.90
52543;DHT22;38449;52.696;6.186;2024-01-11T08:36:11;-2.90;99.90
52543;DHT22;38449;52.696;6.186;2024-01-11T08:38:37;-2.80;99.90
52543;DHT22;38449;52.696;6.186;2024-01-11T08:41:04;-2.70;99.90
52543;DHT22;38449;52.696;6.186;2024-01-11T08:43:31;-2.70;99.90
52543;DHT22;38449;52.696;6.186;2024-01-11T08:45:57;-2.60;99.90
52543;DHT22;38449;52.696;6.186;2024-01-11T08:48:23;-2.60;99.90
52543;DHT22;38449;52.696;6.186;2024-01-11T08:50:49;-2.50;99.90
52543;DHT22;38449;52.696;6.186;2024-01-11T08:53:16;-2.50;99.90
52543;DHT22;38449;52.696;6.186;2024-01-11T08:55:42;-2.50;99.90
52543;DHT22;38449;52.696;6.186;2024-01-11T08:58:09;-2.40;99.90
52543;DHT22;38449;52.696;6.186;2024-01-11T09:00:37;-2.40;99.90
52543;DHT22;38449;52.696;6.186;2024-01-11T09:03:04;-2.40;99.90
52543;DHT22;38449;52.696;6.186;2024-01-11T09:05:30;-2.40;99.90
52543;DHT22;38449;52.696;6.186;2024-01-11T09:07:57;-2.20;99.90
52543;DHT22;38449;52.696;6.186;2024-01-11T09:10:24;-2.30;99.90
52543;DHT22;38449;52.696;6.186;2024-01-11T09:12:50;-2.30;99.90
52543;DHT22;38449;52.696;6.186;2024-01-11T09:15:16;-2.20;99.90
52543;DHT22;38449;52.696;6.186;2024-01-11T09:17:42;-2.20;99.90
52543;DHT22;38449;52.696;6.186;2024-01-11T09:20:09;-2.10;99.90
52543;DHT22;38449;52.696;6.186;2024-01-11T09:22:38;-2.10;99.90
52543;DHT22;38449;52.696;6.186;2024-01-11T09:25:04;-2.00;99.90
52543;DHT22;38449;52.696;6.186;2024-01-11T09:27:33;-1.90;99.90
52543;DHT22;38449;52.696;6.186;2024-01-11T09:29:59;-2.00;99.90
52543;DHT22;38449;52.696;6.186;2024-01-11T09:32:25;-1.90;99.90
52543;DHT22;38449;52.696;6.186;2024-01-11T09:34:51;-1.90;99.90
52543;DHT22;38449;52.696;6.186;2024-01-11T09:37:18;-1.90;99.90
52543;DHT22;38449;52.696;6.186;2024-01-11T09:39:47;-1.80;99.90
52543;DHT22;38449;52.696;6.186;2024-01-11T09:42:13;-1.80;99.90
52543;DHT22;38449;52.696;6.186;2024-01-11T09:44:39;-1.70;99.90
52543;DHT22;38449;52.696;6.186;2024-01-11T09:47:09;-1.60;99.90
52543;DHT22;38449;52.696;6.186;2024-01-11T09:49:36;-1.60;99.90
52543;DHT22;38449;52.696;6.186;2024-01-11T09:52:05;-1.60;99.90
52543;DHT22;38449;52.696;6.186;2024-01-11T09:54:31;-1.60;99.90
52543;DHT22;38449;52.696;6.186;2024-01-11T09:56:58;-1.50;99.90
52543;DHT22;38449;52.696;6.186;2024-01-11T09:59:25;-1.40;99.90
52543;DHT22;38449;52.696;6.186;2024-01-11T10:01:52;-1.40;99.90
52543;DHT22;38449;52.696;6.186;2024-01-11T10:04:19;-1.30;99.90
52543;DHT22;38449;52.696;6.186;2024-01-11T10:06:45;-1.30;99.90
52543;DHT22;38449;52.696;6.186;2024-01-11T10:09:12;-1.10;99.90
52543;DHT22;38449;52.696;6.186;2024-01-11T10:11:39;-1.10;99.90
52543;DHT22;38449;52.696;6.186;2024-01-11T10:14:05;-1.20;99.90
52543;DHT22;38449;52.696;6.186;2024-01-11T10:16:32;-1.10;99.90
52543;DHT22;38449;52.696;6.186;2024-01-11T10:18:58;-1.10;99.90
52543;DHT22;38449;52.696;6.186;2024-01-11T10:21:27;-1.00;99.90
52543;DHT22;38449;52.696;6.186;2024-01-11T10:23:57;-0.90;99.90
52543;DHT22;38449;52.696;6.186;2024-01-11T10:26:24;-0.90;99.90
52543;DHT22;38449;52.696;6.186;2024-01-11T10:28:50;-0.90;99.90
52543;DHT22;38449;52.696;6.186;2024-01-11T10:31:16;-0.80;99.90
52543;DHT22;38449;52.696;6.186;2024-01-11T10:33:45;-0.80;99.90
52543;DHT22;38449;52.696;6.186;2024-01-11T10:36:11;-0.70;99.90
52543;DHT22;38449;52.696;6.186;2024-01-11T10:38:39;-0.80;99.90
52543;DHT22;38449;52.696;6.186;2024-01-11T10:41:06;-0.70;99.90
52543;DHT22;38449;52.696;6.186;2024-01-11T10:43:36;-0.60;99.90
52543;DHT22;38449;52.696;6.186;2024-01-11T10:46:04;-0.60;99.90
52543;DHT22;38449;52.696;6.186;2024-01-11T10:48:39;-0.40;99.90
52543;DHT22;38449;52.696;6.186;2024-01-11T10:51:12;-0.50;99.90
52543;DHT22;38449;52.696;6.186;2024-01-11T10:53:47;-0.30;99.90
52543;DHT22;38449;52.696;6.186;2024-01-11T10:56:15;-0.40;99.90
52543;DHT22;38449;52.696;6.186;2024-01-11T10:58:44;-0.40;99.90
52543;DHT22;38449;52.696;6.186;2024-01-11T11:01:12;-0.20;99.90
52543;DHT22;38449;52.696;6.186;2024-01-11T11:03:39;-0.30;99.90
52543;DHT22;38449;52.696;6.186;2024-01-11T11:06:07;-0.20;99.90
52543;DHT22;38449;52.696;6.186;2024-01-11T11:08:36;-0.20;99.90
52543;DHT22;38449;52.696;6.186;2024-01-11T11:11:04;-0.10;99.90
52543;DHT22;38449;52.696;6.186;2024-01-11T11:13:34;0.10;99.90
52543;DHT22;38449;52.696;6.186;2024-01-11T11:16:03;0.10;99.90
52543;DHT22;38449;52.696;6.186;2024-01-11T11:18:30;0.10;99.90
52543;DHT22;38449;52.696;6.186;2024-01-11T11:20:57;0.10;99.90
52543;DHT22;38449;52.696;6.186;2024-01-11T11:23:25;0.10;99.90
52543;DHT22;38449;52.696;6.186;2024-01-11T11:25:53;0.20;99.90
52543;DHT22;38449;52.696;6.186;2024-01-11T11:28:20;0.10;99.90
52543;DHT22;38449;52.696;6.186;2024-01-11T11:30:49;0.20;99.90
52543;DHT22;38449;52.696;6.186;2024-01-11T11:33:23;0.20;99.90
52543;DHT22;38449;52.696;6.186;2024-01-11T11:35:54;0.30;99.90
52543;DHT22;38449;52.696;6.186;2024-01-11T11:38:26;0.40;99.90
52543;DHT22;38449;52.696;6.186;2024-01-11T11:40:56;0.30;99.90
52543;DHT22;38449;52.696;6.186;2024-01-11T11:43:23;0.40;99.90
52543;DHT22;38449;52.696;6.186;2024-01-11T11:45:51;0.40;99.90
52543;DHT22;38449;52.696;6.186;2024-01-11T11:51:17;0.50;99.90
52543;DHT22;38449;52.696;6.186;2024-01-11T11:53:49;0.60;99.90
52543;DHT22;38449;52.696;6.186;2024-01-11T11:56:20;0.50;99.90
52543;DHT22;38449;52.696;6.186;2024-01-11T11:58:47;0.40;99.90
52543;DHT22;38449;52.696;6.186;2024-01-11T12:01:14;0.60;99.90
52543;DHT22;38449;52.696;6.186;2024-01-11T12:03:41;0.50;99.90
52543;DHT22;38449;52.696;6.186;2024-01-11T12:06:13;0.60;99.90
52543;DHT22;38449;52.696;6.186;2024-01-11T12:08:42;0.70;99.90
52543;DHT22;38449;52.696;6.186;2024-01-11T12:11:09;0.70;99.90
52543;DHT22;38449;52.696;6.186;2024-01-11T12:13:38;0.70;99.90
52543;DHT22;38449;52.696;6.186;2024-01-11T12:16:05;0.60;99.90
52543;DHT22;38449;52.696;6.186;2024-01-11T12:18:32;0.70;99.90
52543;DHT22;38449;52.696;6.186;2024-01-11T12:20:58;0.80;99.90
52543;DHT22;38449;52.696;6.186;2024-01-11T12:23:25;0.80;99.90
52543;DHT22;38449;52.696;6.186;2024-01-11T12:25:57;0.80;99.90
52543;DHT22;38449;52.696;6.186;2024-01-11T12:28:23;0.80;99.90
52543;DHT22;38449;52.696;6.186;2024-01-11T12:30:50;0.80;99.90
52543;DHT22;38449;52.696;6.186;2024-01-11T12:33:17;0.90;99.90
52543;DHT22;38449;52.696;6.186;2024-01-11T12:35:44;0.90;99.90
52543;DHT22;38449;52.696;6.186;2024-01-11T12:38:11;0.90;99.90
52543;DHT22;38449;52.696;6.186;2024-01-11T12:40:38;1.00;99.90
52543;DHT22;38449;52.696;6.186;2024-01-11T12:43:05;1.10;99.90
52543;DHT22;38449;52.696;6.186;2024-01-11T12:45:32;1.10;99.90
52543;DHT22;38449;52.696;6.186;2024-01-11T12:47:59;1.10;99.90
52543;DHT22;38449;52.696;6.186;2024-01-11T12:50:30;1.20;99.90
52543;DHT22;38449;52.696;6.186;2024-01-11T12:53:13;1.20;99.90
52543;DHT22;38449;52.696;6.186;2024-01-11T12:55:47;1.20;99.90
52543;DHT22;38449;52.696;6.186;2024-01-11T12:58:13;1.10;99.90
52543;DHT22;38449;52.696;6.186;2024-01-11T13:00:45;1.20;99.90
52543;DHT22;38449;52.696;6.186;2024-01-11T13:03:12;1.20;99.90
52543;DHT22;38449;52.696;6.186;2024-01-11T13:05:38;1.20;99.90
52543;DHT22;38449;52.696;6.186;2024-01-11T13:08:08;1.00;99.90
52543;DHT22;38449;52.696;6.186;2024-01-11T13:10:35;1.20;99.90
52543;DHT22;38449;52.696;6.186;2024-01-11T13:13:03;1.10;99.90
52543;DHT22;38449;52.696;6.186;2024-01-11T13:15:30;1.10;99.90
52543;DHT22;38449;52.696;6.186;2024-01-11T13:17:58;1.10;99.90
52543;DHT22;38449;52.696;6.186;2024-01-11T13:20:24;1.10;99.90
52543;DHT22;38449;52.696;6.186;2024-01-11T13:23:11;1.10;99.90
52543;DHT22;38449;52.696;6.186;2024-01-11T13:25:40;1.10;99.90
52543;DHT22;38449;52.696;6.186;2024-01-11T13:28:08;1.20;99.90
52543;DHT22;38449;52.696;6.186;2024-01-11T13:30:35;1.20;99.90
52543;DHT22;38449;52.696;6.186;2024-01-11T13:33:02;1.10;99.90
52543;DHT22;38449;52.696;6.186;2024-01-11T13:35:28;1.10;99.90
52543;DHT22;38449;52.696;6.186;2024-01-11T13:37:54;1.10;99.90
52543;DHT22;38449;52.696;6.186;2024-01-11T13:40:21;1.20;99.90
52543;DHT22;38449;52.696;6.186;2024-01-11T13:42:47;1.10;99.90
52543;DHT22;38449;52.696;6.186;2024-01-11T13:45:14;1.30;99.90
52543;DHT22;38449;52.696;6.186;2024-01-11T13:47:40;1.30;99.90
52543;DHT22;38449;52.696;6.186;2024-01-11T13:50:06;1.30;99.90
52543;DHT22;38449;52.696;6.186;2024-01-11T13:52:33;1.30;99.90
52543;DHT22;38449;52.696;6.186;2024-01-11T13:54:59;1.20;99.90
52543;DHT22;38449;52.696;6.186;2024-01-11T13:57:26;1.40;99.90
52543;DHT22;38449;52.696;6.186;2024-01-11T13:59:52;1.30;99.90
52543;DHT22;38449;52.696;6.186;2024-01-11T14:02:19;1.10;99.90
52543;DHT22;38449;52.696;6.186;2024-01-11T14:04:45;1.20;99.90
52543;DHT22;38449;52.696;6.186;2024-01-11T14:07:11;1.10;99.90
52543;DHT22;38449;52.696;6.186;2024-01-11T14:09:38;1.10;99.90
52543;DHT22;38449;52.696;6.186;2024-01-11T14:12:04;1.10;99.90
52543;DHT22;38449;52.696;6.186;2024-01-11T14:14:31;1.20;99.90
52543;DHT22;38449;52.696;6.186;2024-01-11T14:16:57;1.20;99.90
52543;DHT22;38449;52.696;6.186;2024-01-11T14:19:23;1.10;99.90
52543;DHT22;38449;52.696;6.186;2024-01-11T14:21:49;1.00;99.90
52543;DHT22;38449;52.696;6.186;2024-01-11T14:24:16;1.20;99.90
52543;DHT22;38449;52.696;6.186;2024-01-11T14:26:43;1.20;99.90
52543;DHT22;38449;52.696;6.186;2024-01-11T14:29:09;1.20;99.90
52543;DHT22;38449;52.696;6.186;2024-01-11T14:31:37;1.10;99.90
52543;DHT22;38449;52.696;6.186;2024-01-11T14:34:05;1.10;99.90
52543;DHT22;38449;52.696;6.186;2024-01-11T14:36:31;1.20;99.90
52543;DHT22;38449;52.696;6.186;2024-01-11T14:38:57;1.20;99.90
52543;DHT22;38449;52.696;6.186;2024-01-11T14:41:23;1.00;99.90
52543;DHT22;38449;52.696;6.186;2024-01-11T14:43:50;1.20;99.90
52543;DHT22;38449;52.696;6.186;2024-01-11T14:46:16;1.00;99.90
52543;DHT22;38449;52.696;6.186;2024-01-11T14:48:43;1.30;99.90
52543;DHT22;38449;52.696;6.186;2024-01-11T14:51:09;1.10;99.90
52543;DHT22;38449;52.696;6.186;2024-01-11T14:53:36;1.10;99.90
52543;DHT22;38449;52.696;6.186;2024-01-11T14:56:04;1.10;99.90
52543;DHT22;38449;52.696;6.186;2024-01-11T14:58:30;1.20;99.90
52543;DHT22;38449;52.696;6.186;2024-01-11T15:00:57;1.20;99.90
52543;DHT22;38449;52.696;6.186;2024-01-11T15:03:24;1.10;99.90
52543;DHT22;38449;52.696;6.186;2024-01-11T15:05:54;1.10;99.90
52543;DHT22;38449;52.696;6.186;2024-01-11T15:08:20;1.30;99.90
52543;DHT22;38449;52.696;6.186;2024-01-11T15:10:47;1.30;99.90
52543;DHT22;38449;52.696;6.186;2024-01-11T15:13:14;1.30;99.90
52543;DHT22;38449;52.696;6.186;2024-01-11T15:15:41;1.10;99.90
52543;DHT22;38449;52.696;6.186;2024-01-11T15:18:07;1.10;99.90
52543;DHT22;38449;52.696;6.186;2024-01-11T15:20:33;1.10;99.90
52543;DHT22;38449;52.696;6.186;2024-01-11T15:22:59;1.30;99.90
52543;DHT22;38449;52.696;6.186;2024-01-11T15:25:25;1.10;99.90
52543;DHT22;38449;52.696;6.186;2024-01-11T15:27:53;1.20;99.90
52543;DHT22;38449;52.696;6.186;2024-01-11T15:30:19;1.10;99.90
52543;DHT22;38449;52.696;6.186;2024-01-11T15:32:46;1.10;99.90
52543;DHT22;38449;52.696;6.186;2024-01-11T15:35:12;1.30;99.90
52543;DHT22;38449;52.696;6.186;2024-01-11T15:37:38;1.30;99.90
52543;DHT22;38449;52.696;6.186;2024-01-11T15:40:05;1.30;99.90